ESOW/VST METAR and TAF weather

Enter ICAO airport designator
Station Type Date Time Source
ESOW METAR 2020/07/10 16:20 UTC NOAA

ESOW 101620Z 21007KT 9999 FEW035 BKN051 16/09 Q1008


Station Type Date Time Source
ESOW Decoded METAR 2020/07/10 16:20 UTC NOAA

Vasteras / Hasslo, Sweden (ESOW) 59-35N 016-38E 31M
Jul 10, 2020 - 12:20 PM EDT / 2020.07.10 1620 UTC
Wind: from the SSW (210 degrees) at 8 MPH (7 KT):0
Visibility: greater than 7 mile(s):0
Sky conditions: mostly cloudy
Temperature: 60 F (16 C)
Dew Point: 48 F (9 C)
Relative Humidity: 63%
Pressure (altimeter): 29.77 in. Hg (1008 hPa)
ob: ESOW 101620Z 21007KT 9999 FEW035 BKN051 16/09 Q1008
cycle: 16

Station Type Date Time Source
ESOW TAF 2018/11/18 12:33 UTC NOAA

TAF ESOW 181130Z 1812/1914 02015KT 9999 BKN020
TEMPO 1812/1814 02015G25KT

Example: see airport list